Terminal Aerodrome Forecast
Issued by NWS Blacksburg, VA

Home | Current Version | Previous Version | Text Only | Print | Product List | Glossary On
Versions: 1 2 3 4 5 6 7 8 9 10 11 12 13
000
FTUS41 KRNK 221203 RRA
TAFROA
TAF
KROA 221203Z 2212/2312 17006KT P6SM BKN090
     FM230000 15006KT 4SM -SHRA BR OVC025
     FM230500 15006KT 3SM SHRA BR OVC008 WS020/19035KT
      TEMPO 2306/2309 VRB15G30KT 1SM +SHRA BR OVC003
     FM231000 19007KT 4SM -SHRA BR OVC010=

USA.gov is the U.S. government's official web portal to all federal, state and local government web resources and services.